Time;durP1;ratioP1;P1;durP2;ratioP2;P2;SDS_P1;SDS_P2;PMS_P1;PMS_P2;Temp;Humidity;BMP_temperature;BMP_pressure;BME280_temperature;BME280_humidity;BME280_pressure;Samples;Min_cycle;Max_cycle;Signal;HPM_P1;HPM_P2
2023/11/22 00:01:28;;;;;;;45.17;26.75;;;;;;;2.06;100.00;102608.88;5044417;28;20025;-72
2023/11/22 00:03:54;;;;;;;43.22;26.30;;;;;;;2.06;100.00;102605.38;5044950;28;20108;-71
2023/11/22 00:06:20;;;;;;;44.38;26.30;;;;;;;2.04;100.00;102606.94;5041265;28;20083;-71
2023/11/22 00:08:46;;;;;;;46.35;26.95;;;;;;;1.99;100.00;102597.94;5043911;28;20040;-70
2023/11/22 00:11:14;;;;;;;44.88;25.65;;;;;;;1.89;100.00;102591.19;5042512;28;20021;-72
2023/11/22 00:13:40;;;;;;;46.70;27.52;;;;;;;1.87;100.00;102587.56;5041831;28;20025;-72
2023/11/22 00:16:08;;;;;;;45.35;26.05;;;;;;;1.88;100.00;102586.78;5043204;28;20538;-70
2023/11/22 00:18:37;;;;;;;46.00;26.73;;;;;;;1.84;100.00;102583.03;5042224;28;20037;-71
2023/11/22 00:21:02;;;;;;;43.22;25.60;;;;;;;1.82;100.00;102579.44;5043496;28;20478;-72
2023/11/22 00:23:29;;;;;;;45.13;27.02;;;;;;;1.87;100.00;102584.97;5041543;28;20029;-72
2023/11/22 00:25:56;;;;;;;44.75;25.42;;;;;;;1.80;100.00;102590.56;5044634;28;20025;-72
2023/11/22 00:28:22;;;;;;;45.00;26.17;;;;;;;1.81;100.00;102595.88;5037041;28;20030;-72
2023/11/22 00:30:48;;;;;;;47.33;26.95;;;;;;;1.78;100.00;102600.91;5043842;28;20538;-72
2023/11/22 00:33:14;;;;;;;44.88;26.73;;;;;;;1.69;100.00;102603.78;5042286;28;20083;-71
2023/11/22 00:35:39;;;;;;;45.17;26.15;;;;;;;1.63;100.00;102605.97;5042725;28;20481;-72
2023/11/22 00:38:05;;;;;;;45.20;26.13;;;;;;;1.67;100.00;102607.06;5042849;28;20040;-72
2023/11/22 00:40:30;;;;;;;45.20;26.05;;;;;;;1.54;100.00;102607.91;5041659;28;20041;-71
2023/11/22 00:42:56;;;;;;;45.05;25.35;;;;;;;1.52;100.00;102612.13;5047041;28;20472;-72
2023/11/22 00:45:21;;;;;;;44.92;25.73;;;;;;;1.51;100.00;102619.03;5043224;28;20128;-72
2023/11/22 00:47:47;;;;;;;45.20;26.20;;;;;;;1.53;100.00;102616.53;5049202;28;20040;-71
2023/11/22 00:50:13;;;;;;;46.38;27.40;;;;;;;1.57;100.00;102615.94;5048411;28;20029;-72
2023/11/22 00:52:39;;;;;;;46.13;26.35;;;;;;;1.55;100.00;102612.34;5047818;28;20079;-72
2023/11/22 00:55:05;;;;;;;46.20;26.73;;;;;;;1.54;100.00;102616.66;5048362;28;20029;-71
2023/11/22 00:57:30;;;;;;;47.95;26.15;;;;;;;1.48;100.00;102620.53;5046676;28;20072;-72
2023/11/22 00:59:56;;;;;;;49.42;26.67;;;;;;;1.38;100.00;102622.50;5050737;28;20052;-72
2023/11/22 01:02:21;;;;;;;47.90;26.55;;;;;;;1.38;100.00;102617.31;5042018;28;20115;-72
2023/11/22 01:04:46;;;;;;;48.05;26.83;;;;;;;1.29;100.00;102624.44;5047211;28;20033;-72
2023/11/22 01:07:12;;;;;;;46.10;25.95;;;;;;;1.30;100.00;102630.59;5050424;28;20112;-71
2023/11/22 01:09:37;;;;;;;46.67;26.52;;;;;;;1.26;100.00;102633.78;5048137;28;20120;-72
2023/11/22 01:12:03;;;;;;;46.58;26.30;;;;;;;1.18;100.00;102641.03;5048939;28;20495;-72
2023/11/22 01:14:29;;;;;;;47.95;26.35;;;;;;;1.15;100.00;102641.72;5048311;28;20116;-71
2023/11/22 01:16:54;;;;;;;47.83;26.50;;;;;;;1.13;100.00;102643.31;5047763;28;20378;-72
2023/11/22 01:19:20;;;;;;;47.17;26.05;;;;;;;1.14;100.00;102639.03;5050350;28;20079;-72
2023/11/22 01:21:46;;;;;;;46.83;26.73;;;;;;;1.14;100.00;102647.72;5047242;28;20026;-71
2023/11/22 01:24:11;;;;;;;47.47;26.00;;;;;;;1.13;100.00;102645.00;5050111;28;20024;-72
2023/11/22 01:26:38;;;;;;;45.58;25.17;;;;;;;1.09;100.00;102645.59;5048138;28;20079;-71
2023/11/22 01:29:04;;;;;;;47.30;26.90;;;;;;;1.04;100.00;102651.38;5049156;28;20038;-76
2023/11/22 01:31:29;;;;;;;48.55;26.90;;;;;;;1.00;100.00;102654.53;5048980;28;20021;-75
2023/11/22 01:33:54;;;;;;;47.25;26.27;;;;;;;1.01;100.00;102663.28;5047605;28;20043;-74
2023/11/22 01:36:20;;;;;;;46.25;25.90;;;;;;;0.98;100.00;102673.47;5050382;28;20025;-75
2023/11/22 01:38:46;;;;;;;47.50;26.48;;;;;;;0.95;100.00;102678.47;5046992;28;20029;-75
2023/11/22 01:41:15;;;;;;;48.92;26.33;;;;;;;0.88;100.00;102686.63;5049913;28;20035;-75
2023/11/22 01:43:42;;;;;;;48.95;26.23;;;;;;;0.86;100.00;102686.50;5047286;28;20045;-75
2023/11/22 01:46:08;;;;;;;49.03;26.38;;;;;;;0.86;100.00;102690.00;5049002;28;20104;-75
2023/11/22 01:48:36;;;;;;;50.08;27.25;;;;;;;0.87;100.00;102703.94;5048287;28;20045;-75
2023/11/22 01:51:02;;;;;;;49.17;27.00;;;;;;;0.82;100.00;102713.13;5048489;28;20025;-74
2023/11/22 01:53:28;;;;;;;49.88;26.77;;;;;;;0.80;100.00;102710.41;5048632;28;20037;-76
2023/11/22 01:55:54;;;;;;;48.05;26.05;;;;;;;0.79;100.00;102715.50;5025518;28;20100;-74
2023/11/22 01:58:20;;;;;;;48.92;26.52;;;;;;;0.81;100.00;102706.97;5047112;28;20041;-76
2023/11/22 02:00:49;;;;;;;50.33;25.75;;;;;;;0.77;100.00;102712.78;5039631;28;20037;-75
2023/11/22 02:03:15;;;;;;;50.78;26.98;;;;;;;0.72;100.00;102708.91;5037437;28;20029;-75
2023/11/22 02:05:42;;;;;;;49.70;26.92;;;;;;;0.73;100.00;102705.53;5043750;28;20037;-75
2023/11/22 02:08:09;;;;;;;49.65;26.25;;;;;;;0.69;100.00;102706.09;5046624;28;20123;-71
2023/11/22 02:10:36;;;;;;;50.13;26.02;;;;;;;0.71;100.00;102706.19;5043942;28;20022;-75
2023/11/22 02:13:04;;;;;;;49.92;26.25;;;;;;;0.69;100.00;102699.16;5045085;28;20423;-73
2023/11/22 02:15:30;;;;;;;49.80;26.67;;;;;;;0.74;100.00;102688.19;5044331;28;20389;-73
2023/11/22 02:17:57;;;;;;;53.10;26.58;;;;;;;0.67;100.00;102682.53;5044850;28;20037;-74
2023/11/22 02:20:22;;;;;;;50.05;26.08;;;;;;;0.64;100.00;102678.78;5045510;28;20079;-73
2023/11/22 02:22:48;;;;;;;51.83;27.33;;;;;;;0.60;100.00;102685.50;5043654;28;20029;-71
2023/11/22 02:25:15;;;;;;;50.70;26.70;;;;;;;0.50;100.00;102690.81;5046612;28;20064;-72
2023/11/22 02:27:40;;;;;;;50.72;26.27;;;;;;;0.44;100.00;102692.94;5039374;28;20443;-72
2023/11/22 02:30:06;;;;;;;53.22;28.30;;;;;;;0.41;100.00;102703.09;5046059;28;20033;-72
2023/11/22 02:32:33;;;;;;;49.95;25.80;;;;;;;0.28;100.00;102702.19;5042559;28;20033;-72
2023/11/22 02:34:58;;;;;;;49.45;25.25;;;;;;;0.29;100.00;102706.63;5045129;28;20029;-71
2023/11/22 02:37:24;;;;;;;46.38;24.60;;;;;;;0.29;100.00;102704.00;5044898;28;20033;-71
2023/11/22 02:40:08;;;;;;;49.83;26.15;;;;;;;0.30;100.00;102705.81;5042816;28;20025;-71
2023/11/22 02:42:34;;;;;;;45.75;24.23;;;;;;;0.26;100.00;102714.19;5043711;28;20480;-71
2023/11/22 02:44:59;;;;;;;51.83;26.60;;;;;;;0.28;100.00;102703.91;5044542;28;20042;-71
2023/11/22 02:47:24;;;;;;;50.80;26.05;;;;;;;0.23;100.00;102703.53;5044765;28;20098;-70
2023/11/22 02:49:50;;;;;;;52.50;27.05;;;;;;;0.19;100.00;102704.09;5042519;28;20032;-72
2023/11/22 02:52:16;;;;;;;53.53;26.90;;;;;;;0.23;100.00;102702.63;5045659;28;20036;-72
2023/11/22 02:54:47;;;;;;;50.10;26.38;;;;;;;0.28;100.00;102696.09;5042555;28;20040;-71
2023/11/22 02:57:12;;;;;;;55.92;27.10;;;;;;;0.18;100.00;102699.69;5039213;28;20029;-71
2023/11/22 02:59:42;;;;;;;53.08;27.00;;;;;;;0.18;100.00;102699.69;5045724;28;20537;-71
2023/11/22 03:02:07;;;;;;;56.88;28.77;;;;;;;0.21;100.00;102699.03;5042279;28;20032;-72
2023/11/22 03:04:34;;;;;;;53.85;26.92;;;;;;;0.13;100.00;102703.63;5042806;28;20034;-71
2023/11/22 03:06:59;;;;;;;54.88;26.73;;;;;;;0.05;100.00;102699.53;5044903;28;20025;-71
2023/11/22 03:09:26;;;;;;;52.05;26.15;;;;;;;0.03;100.00;102693.28;5043272;28;20491;-69
2023/11/22 03:11:52;;;;;;;50.88;26.38;;;;;;;0.01;100.00;102694.88;5044302;28;20032;-71
2023/11/22 03:14:17;;;;;;;53.25;27.23;;;;;;;-0.04;100.00;102699.75;5044128;28;20033;-71
2023/11/22 03:16:42;;;;;;;54.13;27.33;;;;;;;-0.10;100.00;102707.97;5042686;28;20041;-71
2023/11/22 03:19:08;;;;;;;53.00;26.92;;;;;;;-0.11;100.00;102703.53;5045600;28;20494;-71
2023/11/22 03:21:35;;;;;;;51.80;26.73;;;;;;;-0.18;100.00;102703.84;5041959;28;20061;-71
2023/11/22 03:24:03;;;;;;;55.25;26.92;;;;;;;-0.25;100.00;102702.50;5043997;28;20029;-71
2023/11/22 03:26:31;;;;;;;149.68;28.52;;;;;;;-0.30;100.00;102702.91;5042655;28;20061;-71
2023/11/22 03:28:57;;;;;;;217.93;32.03;;;;;;;-0.43;100.00;102695.84;5044472;28;20034;-70
2023/11/22 03:31:22;;;;;;;276.50;31.67;;;;;;;-0.38;100.00;102702.28;5043214;28;20464;-71
2023/11/22 03:33:47;;;;;;;449.45;40.00;;;;;;;-0.50;100.00;102707.44;5043306;28;20041;-70
2023/11/22 03:36:13;;;;;;;269.30;32.95;;;;;;;-0.47;100.00;102715.47;5044518;28;20108;-71
2023/11/22 03:38:41;;;;;;;59.65;22.55;;;;;;;-0.47;100.00;102723.28;5041726;28;20030;-76
2023/11/22 03:41:06;;;;;;;78.05;24.48;;;;;;;-0.48;100.00;102720.53;5045365;28;20037;-75
2023/11/22 03:43:31;;;;;;;70.47;24.15;;;;;;;-0.59;100.00;102725.81;5041743;28;20026;-76
2023/11/22 03:45:57;;;;;;;68.78;23.92;;;;;;;-0.56;100.00;102735.53;5044072;28;20085;-76
2023/11/22 03:48:23;;;;;;;41.97;21.70;;;;;;;-0.53;100.00;102736.69;5043180;28;20032;-76
2023/11/22 03:50:49;;;;;;;45.63;21.88;;;;;;;-0.59;100.00;102748.28;5042946;28;20075;-75
2023/11/22 03:53:15;;;;;;;45.45;20.67;;;;;;;-0.62;100.00;102755.84;5043941;28;20025;-72
2023/11/22 03:55:40;;;;;;;40.78;21.10;;;;;;;-0.61;100.00;102768.03;5041796;28;20362;-75
2023/11/22 03:58:06;;;;;;;45.42;22.20;;;;;;;-0.64;100.00;102771.31;5044692;28;20025;-75
2023/11/22 04:00:32;;;;;;;45.92;22.42;;;;;;;-0.64;100.00;102770.38;5041625;28;20036;-75
2023/11/22 04:02:59;;;;;;;46.15;23.40;;;;;;;-0.65;100.00;102777.28;5044084;28;20029;-75
2023/11/22 04:05:25;;;;;;;42.90;22.20;;;;;;;-0.64;100.00;102775.56;5041755;28;20815;-75
2023/11/22 04:07:51;;;;;;;42.10;22.27;;;;;;;-0.67;100.00;102783.13;5043884;28;20037;-75
2023/11/22 04:10:19;;;;;;;43.70;21.30;;;;;;;-0.73;100.00;102788.72;5042906;28;20041;-75
2023/11/22 04:12:44;;;;;;;41.72;21.10;;;;;;;-0.73;100.00;102787.06;5043181;28;20071;-75
2023/11/22 04:15:10;;;;;;;39.10;19.90;;;;;;;-0.77;100.00;102787.59;5043551;28;20029;-75
2023/11/22 04:17:37;;;;;;;39.20;19.73;;;;;;;-0.78;100.00;102798.75;5041269;28;20030;-72
2023/11/22 04:20:08;;;;;;;39.80;19.60;;;;;;;-0.82;100.00;102799.28;5044572;28;20032;-72
2023/11/22 04:22:34;;;;;;;42.03;20.37;;;;;;;-0.88;100.00;102806.56;5041241;28;20037;-73
2023/11/22 04:24:59;;;;;;;41.13;20.45;;;;;;;-0.89;100.00;102812.53;5043435;28;20283;-73
2023/11/22 04:27:24;;;;;;;46.38;21.10;;;;;;;-0.99;100.00;102805.69;5041403;28;20035;-73
2023/11/22 04:29:50;;;;;;;43.28;22.00;;;;;;;-0.99;100.00;102816.09;5042450;28;20380;-73
2023/11/22 04:32:15;;;;;;;45.78;22.15;;;;;;;-1.06;100.00;102809.47;5041386;28;20492;-73
2023/11/22 04:34:41;;;;;;;45.30;22.30;;;;;;;-1.09;100.00;102811.81;5042278;28;20057;-73
2023/11/22 04:37:06;;;;;;;45.33;22.08;;;;;;;-1.13;100.00;102801.94;5043654;28;20037;-74
2023/11/22 04:39:32;;;;;;;45.67;22.30;;;;;;;-1.12;100.00;102806.38;5041063;28;20069;-73
2023/11/22 04:41:57;;;;;;;43.42;22.20;;;;;;;-1.14;100.00;102820.00;5035548;28;20077;-72
2023/11/22 04:44:22;;;;;;;42.75;21.92;;;;;;;-1.14;100.00;102815.69;5043690;28;20116;-74
2023/11/22 04:46:48;;;;;;;44.80;22.13;;;;;;;-1.12;100.00;102815.81;5041764;28;20045;-72
2023/11/22 04:49:13;;;;;;;46.70;23.00;;;;;;;-1.13;100.00;102820.13;5042295;28;20457;-75
2023/11/22 04:51:38;;;;;;;45.90;22.88;;;;;;;-1.15;100.00;102803.53;5043551;28;20437;-73
2023/11/22 04:54:04;;;;;;;46.35;23.25;;;;;;;-1.17;100.00;102814.56;5041032;28;20072;-73
2023/11/22 04:56:29;;;;;;;47.97;22.77;;;;;;;-1.19;100.00;102808.31;5044009;28;20079;-72
2023/11/22 04:58:56;;;;;;;46.75;22.23;;;;;;;-1.21;100.00;102813.38;5041087;28;20029;-72
2023/11/22 05:01:21;;;;;;;44.20;22.10;;;;;;;-1.22;100.00;102814.16;5043154;28;20541;-75
2023/11/22 05:03:47;;;;;;;47.05;22.25;;;;;;;-1.21;100.00;102815.97;5044089;28;20028;-74
2023/11/22 05:06:12;;;;;;;45.65;22.40;;;;;;;-1.26;100.00;102825.06;5041800;28;20029;-75
2023/11/22 05:08:37;;;;;;;43.03;21.88;;;;;;;-1.26;100.00;102820.78;5042399;28;20420;-73
2023/11/22 05:11:03;;;;;;;43.17;21.50;;;;;;;-1.20;100.00;102819.50;5041840;28;20052;-75
2023/11/22 05:13:29;;;;;;;44.53;22.25;;;;;;;-1.20;100.00;102820.38;5040804;28;20040;-74
2023/11/22 05:15:55;;;;;;;39.55;19.13;;;;;;;-1.19;100.00;102822.22;5043916;28;20500;-74
2023/11/22 05:18:21;;;;;;;43.15;20.95;;;;;;;-1.21;100.00;102830.63;5040455;28;20076;-75
2023/11/22 05:20:48;;;;;;;42.45;20.35;;;;;;;-1.22;100.00;102821.97;5043215;28;20025;-75
2023/11/22 05:23:13;;;;;;;43.65;21.63;;;;;;;-1.18;100.00;102821.44;5041344;28;20075;-74
2023/11/22 05:25:39;;;;;;;43.17;21.15;;;;;;;-1.16;100.00;102826.75;5042564;28;20033;-75
2023/11/22 05:28:04;;;;;;;43.13;20.92;;;;;;;-1.19;100.00;102826.47;5042874;28;20111;-75
2023/11/22 05:30:30;;;;;;;46.15;21.40;;;;;;;-1.22;100.00;102824.56;5044768;28;20048;-75
2023/11/22 05:32:55;;;;;;;45.00;22.23;;;;;;;-1.18;100.00;102818.84;5047891;28;20033;-74
2023/11/22 05:35:21;;;;;;;46.13;21.73;;;;;;;-1.12;100.00;102821.94;5040049;28;20515;-75
2023/11/22 05:37:47;;;;;;;46.58;21.75;;;;;;;-1.11;100.00;102815.06;5046676;28;20040;-74
2023/11/22 05:40:15;;;;;;;50.25;23.42;;;;;;;-1.08;100.00;102816.22;5045624;28;20029;-75
2023/11/22 05:42:41;;;;;;;58.80;23.75;;;;;;;-1.08;100.00;102808.44;5045875;28;20025;-75
2023/11/22 05:45:07;;;;;;;50.03;23.85;;;;;;;-0.98;100.00;102811.78;5045599;28;20040;-70
2023/11/22 05:47:33;;;;;;;48.45;23.25;;;;;;;-0.98;100.00;102810.09;5045041;28;20087;-71
2023/11/22 05:49:58;;;;;;;48.20;23.17;;;;;;;-0.90;100.00;102821.13;5046892;28;20033;-71
2023/11/22 05:52:24;;;;;;;51.50;22.80;;;;;;;-0.79;100.00;102827.19;5043707;28;20034;-70
2023/11/22 05:54:49;;;;;;;180.88;31.85;;;;;;;-0.81;100.00;102829.66;5046903;28;20138;-71
2023/11/22 05:57:15;;;;;;;110.90;28.58;;;;;;;-0.73;100.00;102849.41;5044300;28;20037;-70
2023/11/22 05:59:40;;;;;;;146.35;32.15;;;;;;;-0.76;100.00;102856.00;5045866;28;20117;-74
2023/11/22 06:02:06;;;;;;;103.57;31.38;;;;;;;-0.71;100.00;102866.00;5040527;28;20026;-70
2023/11/22 06:04:31;;;;;;;174.63;33.10;;;;;;;-0.68;100.00;102861.84;5045232;28;20044;-71
2023/11/22 06:06:57;;;;;;;242.45;36.78;;;;;;;-0.71;100.00;102855.63;5044562;28;20512;-70
2023/11/22 06:09:23;;;;;;;198.80;33.30;;;;;;;-0.66;100.00;102849.91;5046654;28;20025;-71
2023/11/22 06:11:48;;;;;;;252.32;36.67;;;;;;;-0.67;100.00;102845.47;5042116;28;20033;-71
2023/11/22 06:14:14;;;;;;;256.23;37.55;;;;;;;-0.65;100.00;102851.72;5047089;28;20380;-70
2023/11/22 06:16:39;;;;;;;192.05;34.83;;;;;;;-0.60;100.00;102861.69;5043882;28;20033;-70
2023/11/22 06:19:04;;;;;;;111.82;30.23;;;;;;;-0.54;100.00;102863.88;5045137;28;20037;-71
2023/11/22 06:21:30;;;;;;;174.60;34.13;;;;;;;-0.54;100.00;102866.47;5045415;28;20032;-71
2023/11/22 06:23:57;;;;;;;241.23;37.50;;;;;;;-0.56;100.00;102865.47;5044003;28;20076;-70
2023/11/22 06:26:23;;;;;;;269.27;38.47;;;;;;;-0.51;100.00;102874.56;5046040;28;20025;-71
2023/11/22 06:28:49;;;;;;;221.25;36.33;;;;;;;-0.46;100.00;102875.81;5043250;28;20022;-70
2023/11/22 06:31:14;;;;;;;189.45;36.42;;;;;;;-0.42;100.00;102872.69;5046318;28;20115;-70
2023/11/22 06:33:40;;;;;;;146.20;32.25;;;;;;;-0.33;100.00;102876.84;5043541;28;20025;-71
2023/11/22 06:36:05;;;;;;;198.32;35.97;;;;;;;-0.38;100.00;102877.34;5045275;28;20079;-71
2023/11/22 06:38:31;;;;;;;108.40;33.80;;;;;;;-0.31;100.00;102880.44;5044599;28;20057;-70
2023/11/22 06:40:56;;;;;;;122.15;32.03;;;;;;;-0.23;100.00;102877.69;5042958;28;20469;-72
2023/11/22 06:43:22;;;;;;;127.75;35.30;;;;;;;-0.21;100.00;102890.81;5046308;28;20472;-71
2023/11/22 06:45:48;;;;;;;90.93;33.08;;;;;;;-0.14;100.00;102894.81;5042521;28;20452;-73
2023/11/22 06:48:13;;;;;;;74.22;31.52;;;;;;;-0.08;100.00;102900.50;5046069;28;20021;-71
2023/11/22 06:50:39;;;;;;;67.53;30.17;;;;;;;-0.04;100.00;102906.06;5042571;28;20448;-72
2023/11/22 06:53:05;;;;;;;73.75;30.95;;;;;;;0.03;100.00;102902.28;5044786;28;20029;-71
2023/11/22 06:55:32;;;;;;;60.63;29.67;;;;;;;0.09;100.00;102892.38;5044640;28;20037;-72
2023/11/22 06:57:58;;;;;;;61.33;29.63;;;;;;;0.19;100.00;102874.88;5043414;28;20033;-72
2023/11/22 07:00:23;;;;;;;64.03;29.98;;;;;;;0.23;100.00;102871.72;5045395;28;20036;-73
2023/11/22 07:02:49;;;;;;;88.40;32.58;;;;;;;0.27;100.00;102866.88;5042184;28;20469;-71
2023/11/22 07:05:14;;;;;;;112.55;34.97;;;;;;;0.28;100.00;102863.50;5045627;28;20025;-72
2023/11/22 07:07:40;;;;;;;140.70;36.72;;;;;;;0.29;100.00;102870.53;5042499;28;20026;-71
2023/11/22 07:10:06;;;;;;;187.77;38.13;;;;;;;0.34;100.00;102860.47;5045507;28;20075;-72
2023/11/22 07:12:34;;;;;;;208.95;40.20;;;;;;;0.43;100.00;102865.50;5043072;28;20435;-72
2023/11/22 07:14:59;;;;;;;239.05;43.42;;;;;;;0.44;100.00;102859.50;5044561;28;20414;-72
2023/11/22 07:17:27;;;;;;;178.30;39.42;;;;;;;0.48;100.00;102861.53;5044080;28;20067;-71
2023/11/22 07:19:53;;;;;;;228.88;44.10;;;;;;;0.49;100.00;102860.75;5043193;28;20125;-74
2023/11/22 07:22:19;;;;;;;196.18;41.75;;;;;;;0.57;100.00;102866.53;5043421;28;20483;-72
2023/11/22 07:24:51;;;;;;;261.40;44.42;;;;;;;0.52;100.00;102866.19;5042285;28;20025;-72
2023/11/22 07:27:18;;;;;;;214.30;42.78;;;;;;;0.58;100.00;102871.88;5045028;28;20049;-71
2023/11/22 07:29:45;;;;;;;166.25;40.17;;;;;;;0.63;100.00;102875.75;5041885;28;20063;-76
2023/11/22 07:32:11;;;;;;;157.88;40.40;;;;;;;0.71;100.00;102880.63;5037023;28;20033;-76
2023/11/22 07:34:39;;;;;;;253.43;47.92;;;;;;;0.76;100.00;102889.69;5044738;28;20029;-75
2023/11/22 07:37:06;;;;;;;148.60;39.22;;;;;;;0.85;100.00;102886.09;5042336;28;20391;-76
2023/11/22 07:39:32;;;;;;;157.77;39.17;;;;;;;0.89;100.00;102889.88;5044375;28;20025;-76
2023/11/22 07:41:57;;;;;;;206.60;43.58;;;;;;;0.90;100.00;102889.06;5043170;28;20033;-76
2023/11/22 07:44:24;;;;;;;126.78;38.25;;;;;;;0.92;100.00;102895.31;5042757;28;20026;-75
2023/11/22 07:46:49;;;;;;;192.80;43.40;;;;;;;0.95;100.00;102890.34;5044275;28;20048;-76
2023/11/22 07:49:15;;;;;;;180.95;42.92;;;;;;;0.99;100.00;102895.00;5040347;28;20027;-76
2023/11/22 07:51:41;;;;;;;174.80;42.35;;;;;;;1.01;100.00;102890.78;5043294;28;20075;-75
2023/11/22 07:54:07;;;;;;;122.03;37.72;;;;;;;1.10;100.00;102884.47;5041485;28;20034;-74
2023/11/22 07:56:32;;;;;;;103.88;36.78;;;;;;;1.15;100.00;102897.06;5043900;28;20025;-75
2023/11/22 07:58:58;;;;;;;119.78;38.22;;;;;;;1.19;100.00;102908.59;5032303;28;20396;-73
2023/11/22 08:01:25;;;;;;;96.32;36.80;;;;;;;1.15;100.00;102911.75;5044601;28;20045;-76
2023/11/22 08:03:51;;;;;;;120.28;38.50;;;;;;;1.14;100.00;102915.19;5041750;28;20040;-75
2023/11/22 08:06:17;;;;;;;111.20;37.72;;;;;;;1.17;100.00;102925.84;5044448;28;20060;-76
2023/11/22 08:08:45;;;;;;;96.90;35.95;;;;;;;1.18;100.00;102928.56;5040805;28;20069;-77
2023/11/22 08:11:14;;;;;;;105.45;37.55;;;;;;;1.24;100.00;102935.94;5043673;28;20519;-76
2023/11/22 08:13:42;;;;;;;113.68;37.47;;;;;;;1.28;100.00;102940.59;5042171;28;20025;-75
2023/11/22 08:16:08;;;;;;;140.48;38.70;;;;;;;1.33;100.00;102944.44;5043304;28;20030;-76
2023/11/22 08:18:34;;;;;;;116.50;37.72;;;;;;;1.39;100.00;102942.28;5042820;28;20029;-76
2023/11/22 08:20:59;;;;;;;104.40;37.63;;;;;;;1.44;100.00;102946.94;5042007;28;20033;-75
2023/11/22 08:23:26;;;;;;;104.78;37.83;;;;;;;1.50;100.00;102952.59;5044326;28;20464;-76
2023/11/22 08:25:52;;;;;;;194.00;44.78;;;;;;;1.56;100.00;102948.78;5041053;28;20554;-72
2023/11/22 08:28:18;;;;;;;126.40;39.50;;;;;;;1.51;100.00;102944.00;5036920;28;20025;-72
2023/11/22 08:30:44;;;;;;;110.95;38.17;;;;;;;1.47;100.00;102948.09;5043885;28;20033;-72
2023/11/22 08:33:10;;;;;;;114.97;39.83;;;;;;;1.51;100.00;102944.00;5041943;28;20403;-72
2023/11/22 08:35:35;;;;;;;123.28;40.17;;;;;;;1.56;100.00;102942.66;5042576;28;20029;-73
2023/11/22 08:38:03;;;;;;;99.72;39.17;;;;;;;1.60;100.00;102943.78;5043526;28;20041;-72
2023/11/22 08:40:28;;;;;;;110.35;40.40;;;;;;;1.60;100.00;102942.06;5041604;28;20083;-72
2023/11/22 08:42:54;;;;;;;112.28;40.53;;;;;;;1.68;100.00;102935.72;5044138;28;20029;-73
2023/11/22 08:45:19;;;;;;;109.13;40.33;;;;;;;1.67;100.00;102949.56;5040743;28;20051;-73
2023/11/22 08:47:45;;;;;;;115.95;42.42;;;;;;;1.79;100.00;102956.47;5042451;28;20033;-73
2023/11/22 08:50:11;;;;;;;127.22;44.83;;;;;;;1.84;100.00;102965.56;5041929;28;20380;-75
2023/11/22 08:52:41;;;;;;;133.70;43.92;;;;;;;1.94;100.00;102962.84;5042785;28;20030;-72
2023/11/22 08:55:07;;;;;;;116.57;43.88;;;;;;;1.95;100.00;102967.22;5042167;28;20047;-73
2023/11/22 08:57:37;;;;;;;121.28;45.08;;;;;;;1.97;100.00;102973.50;5040099;28;20034;-73
2023/11/22 09:00:07;;;;;;;114.78;44.03;;;;;;;2.03;100.00;102967.81;5040122;28;20028;-72
2023/11/22 09:02:33;;;;;;;130.23;46.42;;;;;;;2.12;100.00;102965.88;5039910;28;20024;-72
2023/11/22 09:04:58;;;;;;;118.53;45.45;;;;;;;2.14;100.00;102969.53;5047049;28;20035;-72
2023/11/22 09:07:24;;;;;;;104.95;42.55;;;;;;;2.16;100.00;102969.63;5043946;28;20164;-73
2023/11/22 09:09:51;;;;;;;105.55;42.70;;;;;;;2.09;100.00;102968.25;5047010;28;20026;-72
2023/11/22 09:12:19;;;;;;;114.00;42.55;;;;;;;2.14;100.00;102968.59;5045834;28;20040;-73
2023/11/22 09:14:45;;;;;;;106.93;41.63;;;;;;;2.20;100.00;102971.63;5046440;28;20143;-72
2023/11/22 09:17:10;;;;;;;118.03;43.78;;;;;;;2.24;100.00;102973.69;5046553;28;20028;-73
2023/11/22 09:19:37;;;;;;;113.68;44.60;;;;;;;2.26;100.00;102973.00;5044840;28;20034;-75
2023/11/22 09:22:03;;;;;;;113.60;43.80;;;;;;;2.27;100.00;102963.44;5047817;28;20029;-74
2023/11/22 09:24:28;;;;;;;116.80;46.08;;;;;;;2.31;100.00;102975.94;5044340;28;20033;-74
2023/11/22 09:26:53;;;;;;;111.97;44.75;;;;;;;2.40;100.00;102984.44;5047223;28;20028;-76
2023/11/22 09:29:19;;;;;;;115.10;44.28;;;;;;;2.49;100.00;102978.97;5045531;28;20373;-75
2023/11/22 09:31:48;;;;;;;119.30;45.60;;;;;;;2.49;100.00;102984.19;5044640;28;20168;-75
2023/11/22 09:34:13;;;;;;;116.53;45.65;;;;;;;2.50;100.00;102974.66;5045886;28;20033;-75
2023/11/22 09:36:39;;;;;;;119.45;45.80;;;;;;;2.53;100.00;102972.25;5045095;28;20534;-74
2023/11/22 09:39:08;;;;;;;107.13;44.22;;;;;;;2.57;100.00;102976.91;5047029;28;20025;-74
2023/11/22 09:41:37;;;;;;;108.55;45.95;;;;;;;2.63;100.00;102979.03;5044157;28;20029;-74
2023/11/22 09:44:04;;;;;;;105.25;45.17;;;;;;;2.63;100.00;102981.66;5047386;28;20063;-75
2023/11/22 09:46:30;;;;;;;108.13;45.25;;;;;;;2.58;100.00;102987.44;5043699;28;20042;-75
2023/11/22 09:48:57;;;;;;;107.25;45.33;;;;;;;2.64;100.00;102992.22;5047042;28;20025;-75
2023/11/22 09:51:28;;;;;;;101.85;44.03;;;;;;;2.81;100.00;103002.94;5044591;28;20064;-74
2023/11/22 09:54:08;;;;;;;103.13;44.25;;;;;;;2.89;100.00;102991.31;5046716;28;20036;-74
2023/11/22 09:56:38;;;;;;;90.78;42.13;;;;;;;2.96;100.00;102990.97;5040980;28;20030;-74
2023/11/22 09:59:07;;;;;;;93.82;42.70;;;;;;;3.11;100.00;102976.31;5046774;28;20021;-73
2023/11/22 10:01:36;;;;;;;90.25;41.20;;;;;;;3.28;100.00;102977.47;5044615;28;20022;-72
2023/11/22 10:04:02;;;;;;;85.40;40.35;;;;;;;3.29;100.00;102976.69;5046187;28;20036;-72
2023/11/22 10:06:33;;;;;;;85.63;41.53;;;;;;;3.32;100.00;102978.63;5043751;28;20029;-72
2023/11/22 10:08:58;;;;;;;82.55;39.90;;;;;;;3.43;100.00;102975.00;5046650;28;20472;-73
2023/11/22 10:11:24;;;;;;;85.43;40.25;;;;;;;3.64;100.00;102972.00;5043463;28;20038;-73
2023/11/22 10:13:50;;;;;;;69.93;36.80;;;;;;;3.55;100.00;102974.00;5046620;28;20040;-73
2023/11/22 10:16:18;;;;;;;64.50;35.20;;;;;;;3.62;100.00;102977.13;5043029;28;20385;-72
2023/11/22 10:18:46;;;;;;;62.53;35.08;;;;;;;3.71;100.00;102982.06;5045527;28;20104;-72
2023/11/22 10:21:25;;;;;;;62.50;33.97;;;;;;;3.67;100.00;102980.97;5044509;28;20472;-73
2023/11/22 10:24:03;;;;;;;60.05;33.95;;;;;;;3.83;100.00;102969.81;5046618;28;20021;-73
2023/11/22 10:26:30;;;;;;;57.60;33.47;;;;;;;3.87;100.00;102972.63;5040666;28;20036;-73
2023/11/22 10:28:56;;;;;;;57.50;33.42;;;;;;;3.86;100.00;102981.28;5047020;28;20029;-72
2023/11/22 10:31:23;;;;;;;56.72;32.88;;;;;;;3.82;100.00;102975.84;5039084;28;20034;-71
2023/11/22 10:33:49;;;;;;;56.40;33.20;;;;;;;3.96;100.00;102986.31;5044724;28;20021;-72
2023/11/22 10:36:15;;;;;;;54.72;32.65;;;;;;;4.09;100.00;102967.06;5044032;28;20426;-72
2023/11/22 10:38:46;;;;;;;51.35;30.35;;;;;;;4.10;100.00;102974.13;5043553;28;20033;-72
2023/11/22 10:41:13;;;;;;;51.95;30.20;;;;;;;4.12;100.00;102975.13;5044414;28;20032;-73
2023/11/22 10:43:39;;;;;;;51.30;30.23;;;;;;;4.21;100.00;102961.72;5044724;28;20013;-72
2023/11/22 10:46:06;;;;;;;48.67;29.27;;;;;;;4.19;100.00;102961.63;5044778;28;20056;-72
2023/11/22 10:48:35;;;;;;;53.15;31.33;;;;;;;4.15;100.00;102955.31;5043439;28;20053;-72
2023/11/22 10:51:05;;;;;;;54.00;32.60;;;;;;;4.23;100.00;102957.50;5045544;28;20021;-73
2023/11/22 10:53:36;;;;;;;54.97;32.15;;;;;;;4.14;100.00;102948.25;5043290;28;20372;-72
2023/11/22 10:56:12;;;;;;;55.40;31.90;;;;;;;4.36;100.00;102931.28;5045109;28;20146;-73
2023/11/22 10:58:49;;;;;;;54.65;30.98;;;;;;;4.40;100.00;102914.97;5043916;28;20040;-73
2023/11/22 11:01:19;;;;;;;54.50;32.35;;;;;;;4.41;100.00;102922.00;5042174;28;20025;-72